Time;durP1;ratioP1;P1;durP2;ratioP2;P2;SDS_P1;SDS_P2;PMS_P1;PMS_P2;Temp;Humidity;BMP_temperature;BMP_pressure;BME280_temperature;BME280_humidity;BME280_pressure;Samples;Min_cycle;Max_cycle;Signal;HPM_P1;HPM_P2
2022/09/09 00:00:45;;;;;;;5.17;4.50;;;;;;;;;;5049924;28;20236;-48
2022/09/09 00:03:12;;;;;;;4.50;4.10;;;;;;;;;;5050028;28;20208;-48
2022/09/09 00:05:44;;;;;;;4.87;4.13;;;;;;;;;;5050057;28;20623;-48
2022/09/09 00:08:14;;;;;;;6.13;4.50;;;;;;;;;;5052481;28;20702;-48
2022/09/09 00:10:41;;;;;;;4.83;4.43;;;;;;;;;;5052200;28;20196;-49
2022/09/09 00:13:17;;;;;;;4.83;4.33;;;;;;;;;;5052557;28;20206;-48
2022/09/09 00:15:52;;;;;;;4.33;4.03;;;;;;;;;;5053931;28;20245;-49
2022/09/09 00:18:23;;;;;;;4.17;3.87;;;;;;;;;;5054164;28;20200;-49
2022/09/09 00:20:52;;;;;;;5.80;4.10;;;;;;;;;;5053974;28;20192;-48
2022/09/09 00:23:24;;;;;;;4.30;3.97;;;;;;;;;;5054092;28;20196;-48
2022/09/09 00:25:53;;;;;;;4.00;3.70;;;;;;;;;;5053949;28;20242;-48
2022/09/09 00:28:20;;;;;;;4.60;4.20;;;;;;;;;;5053798;28;20295;-48
2022/09/09 00:30:48;;;;;;;4.30;3.83;;;;;;;;;;5053613;28;20203;-48
2022/09/09 00:33:15;;;;;;;4.70;3.60;;;;;;;;;;5053673;28;20265;-48
2022/09/09 00:35:44;;;;;;;5.43;4.00;;;;;;;;;;5053920;28;20200;-48
2022/09/09 00:38:13;;;;;;;4.57;3.90;;;;;;;;;;5053478;28;20192;-48
2022/09/09 00:40:41;;;;;;;7.37;4.10;;;;;;;;;;5051483;28;20658;-48
2022/09/09 00:43:17;;;;;;;4.77;4.13;;;;;;;;;;5052989;28;20224;-48
2022/09/09 00:45:56;;;;;;;3.87;3.50;;;;;;;;;;5053013;28;20200;-48
2022/09/09 00:48:29;;;;;;;4.10;3.67;;;;;;;;;;5053592;28;20709;-47
2022/09/09 00:50:58;;;;;;;3.67;3.17;;;;;;;;;;5053452;28;20234;-48
2022/09/09 00:53:30;;;;;;;4.57;3.20;;;;;;;;;;5053526;28;20204;-48
2022/09/09 00:56:00;;;;;;;3.80;3.50;;;;;;;;;;5053271;28;20574;-48
2022/09/09 00:58:27;;;;;;;4.83;3.37;;;;;;;;;;5051718;28;20224;-48
2022/09/09 01:00:57;;;;;;;3.60;3.20;;;;;;;;;;5053105;28;20231;-48
2022/09/09 01:03:28;;;;;;;4.57;3.47;;;;;;;;;;5053431;28;20222;-48
2022/09/09 01:06:01;;;;;;;5.70;3.20;;;;;;;;;;5053287;28;20223;-48
2022/09/09 01:08:43;;;;;;;4.10;3.00;;;;;;;;;;5052915;28;20223;-48
2022/09/09 01:11:14;;;;;;;6.60;3.23;;;;;;;;;;5052994;28;20245;-48
2022/09/09 01:13:42;;;;;;;3.17;2.70;;;;;;;;;;5053163;28;20290;-48
2022/09/09 01:16:11;;;;;;;8.03;3.00;;;;;;;;;;5051181;28;20279;-48
2022/09/09 01:18:40;;;;;;;3.47;3.00;;;;;;;;;;5050440;28;20205;-48
2022/09/09 01:21:10;;;;;;;2.83;2.60;;;;;;;;;;5052908;28;20238;-48
2022/09/09 01:23:46;;;;;;;4.00;3.60;;;;;;;;;;5052985;28;20200;-48
2022/09/09 01:26:29;;;;;;;2.83;2.53;;;;;;;;;;5052754;28;20220;-48
2022/09/09 01:28:57;;;;;;;3.23;2.50;;;;;;;;;;5052976;28;20210;-54
2022/09/09 01:31:27;;;;;;;4.33;3.10;;;;;;;;;;5052480;28;20597;-47
2022/09/09 01:33:53;;;;;;;3.47;2.60;;;;;;;;;;5052595;28;20700;-47
2022/09/09 01:36:23;;;;;;;4.03;2.87;;;;;;;;;;5051212;28;20277;-47
2022/09/09 01:38:49;;;;;;;2.60;2.40;;;;;;;;;;5052164;28;20704;-47
2022/09/09 01:41:15;;;;;;;2.83;2.57;;;;;;;;;;5052534;28;20216;-47
2022/09/09 01:43:41;;;;;;;5.00;2.77;;;;;;;;;;5052456;28;20203;-47
2022/09/09 01:46:09;;;;;;;6.23;2.53;;;;;;;;;;5052072;28;20232;-47
2022/09/09 01:48:35;;;;;;;2.53;2.33;;;;;;;;;;5052455;28;20215;-48
2022/09/09 01:51:01;;;;;;;3.80;2.30;;;;;;;;;;5052298;28;20231;-47
2022/09/09 01:53:27;;;;;;;2.57;2.30;;;;;;;;;;5052376;28;20193;-47
2022/09/09 01:55:59;;;;;;;5.80;2.37;;;;;;;;;;5052170;28;21191;-48
2022/09/09 01:58:30;;;;;;;2.10;1.90;;;;;;;;;;5052108;28;20195;-48
2022/09/09 02:01:00;;;;;;;3.77;2.33;;;;;;;;;;5052002;28;20239;-48
2022/09/09 02:03:29;;;;;;;2.60;2.10;;;;;;;;;;5050361;28;20203;-47
2022/09/09 02:06:00;;;;;;;3.77;2.37;;;;;;;;;;5052211;28;20732;-48
2022/09/09 02:08:29;;;;;;;5.53;2.90;;;;;;;;;;5051683;28;20234;-48
2022/09/09 02:10:56;;;;;;;3.03;2.00;;;;;;;;;;5051957;28;20202;-48
2022/09/09 02:13:22;;;;;;;3.93;2.20;;;;;;;;;;5051918;28;20208;-47
2022/09/09 02:15:52;;;;;;;4.13;2.17;;;;;;;;;;5051954;28;20231;-48
2022/09/09 02:18:23;;;;;;;4.33;2.10;;;;;;;;;;5051467;28;20193;-48
2022/09/09 02:20:51;;;;;;;3.23;2.10;;;;;;;;;;5051653;28;20196;-48
2022/09/09 02:23:18;;;;;;;3.20;2.30;;;;;;;;;;5051750;28;20200;-48
2022/09/09 02:25:46;;;;;;;3.87;2.17;;;;;;;;;;5051488;28;20235;-48
2022/09/09 02:28:14;;;;;;;2.43;1.70;;;;;;;;;;5051538;28;20236;-49
2022/09/09 02:30:40;;;;;;;3.20;2.53;;;;;;;;;;5051400;28;20219;-46
2022/09/09 02:33:10;;;;;;;2.90;2.10;;;;;;;;;;5051492;28;20203;-46
2022/09/09 02:35:37;;;;;;;2.60;1.97;;;;;;;;;;5051459;28;20204;-47
2022/09/09 02:38:06;;;;;;;3.80;2.20;;;;;;;;;;5051479;28;20254;-46
2022/09/09 02:40:33;;;;;;;2.13;1.93;;;;;;;;;;5051624;28;20218;-46
2022/09/09 02:42:59;;;;;;;4.00;2.03;;;;;;;;;;5051446;28;20622;-46
2022/09/09 02:45:28;;;;;;;2.20;2.00;;;;;;;;;;5051207;28;20226;-48
2022/09/09 02:47:59;;;;;;;2.70;2.00;;;;;;;;;;5051210;28;20232;-48
2022/09/09 02:50:27;;;;;;;3.83;2.20;;;;;;;;;;5051061;28;20262;-49
2022/09/09 02:53:01;;;;;;;4.70;2.20;;;;;;;;;;5051344;28;20207;-48
2022/09/09 02:55:32;;;;;;;3.13;2.00;;;;;;;;;;5051231;28;20204;-48
2022/09/09 02:57:58;;;;;;;2.00;1.80;;;;;;;;;;5051240;28;20254;-49
2022/09/09 03:00:25;;;;;;;4.20;1.90;;;;;;;;;;5051023;28;20580;-48
2022/09/09 03:02:51;;;;;;;2.40;1.90;;;;;;;;;;5050933;28;20204;-48
2022/09/09 03:05:17;;;;;;;4.20;1.93;;;;;;;;;;5051181;28;20222;-48
2022/09/09 03:07:43;;;;;;;3.07;2.00;;;;;;;;;;5050845;28;20235;-49
2022/09/09 03:10:10;;;;;;;3.93;1.80;;;;;;;;;;5049428;28;20200;-48
2022/09/09 03:12:38;;;;;;;2.10;1.90;;;;;;;;;;5050930;28;20200;-48
2022/09/09 03:15:05;;;;;;;2.23;1.87;;;;;;;;;;5050947;28;20208;-48
2022/09/09 03:17:31;;;;;;;3.53;1.87;;;;;;;;;;5050912;28;20200;-49
2022/09/09 03:19:58;;;;;;;3.77;2.10;;;;;;;;;;5050672;28;20728;-49
2022/09/09 03:22:25;;;;;;;3.83;2.20;;;;;;;;;;5050798;28;20246;-49
2022/09/09 03:24:51;;;;;;;6.57;2.20;;;;;;;;;;5050787;28;20196;-48
2022/09/09 03:27:17;;;;;;;3.43;2.10;;;;;;;;;;5050782;28;20227;-49
2022/09/09 03:29:44;;;;;;;2.53;2.27;;;;;;;;;;5050848;28;20773;-48
2022/09/09 03:32:11;;;;;;;6.57;2.50;;;;;;;;;;5050425;28;20200;-48
2022/09/09 03:34:40;;;;;;;4.40;2.20;;;;;;;;;;5050812;28;20188;-49
2022/09/09 03:37:06;;;;;;;2.83;2.43;;;;;;;;;;5050547;28;20196;-48
2022/09/09 03:39:32;;;;;;;5.37;2.90;;;;;;;;;;5050815;28;20211;-48
2022/09/09 03:41:58;;;;;;;2.30;2.10;;;;;;;;;;5051355;28;20196;-49
2022/09/09 03:44:24;;;;;;;4.33;2.60;;;;;;;;;;5054840;28;20223;-48
2022/09/09 03:46:51;;;;;;;4.03;2.10;;;;;;;;;;5054598;28;20313;-49
2022/09/09 03:49:17;;;;;;;3.30;2.20;;;;;;;;;;5054709;28;20218;-49
2022/09/09 03:51:43;;;;;;;2.97;2.20;;;;;;;;;;5054670;28;20192;-48
2022/09/09 03:54:10;;;;;;;3.93;2.20;;;;;;;;;;5054364;28;20200;-48
2022/09/09 03:56:36;;;;;;;3.63;2.30;;;;;;;;;;5054483;28;20363;-49
2022/09/09 03:59:02;;;;;;;6.27;2.60;;;;;;;;;;5054224;28;20283;-48
2022/09/09 04:01:28;;;;;;;3.40;2.50;;;;;;;;;;5054040;28;20299;-48
2022/09/09 04:03:57;;;;;;;2.50;2.20;;;;;;;;;;5054507;28;20586;-48
2022/09/09 04:06:24;;;;;;;3.83;2.30;;;;;;;;;;5054174;28;20196;-48
2022/09/09 04:08:52;;;;;;;3.03;1.90;;;;;;;;;;5053973;28;20239;-48
2022/09/09 04:11:18;;;;;;;3.63;2.30;;;;;;;;;;5054162;28;20239;-48
2022/09/09 04:13:44;;;;;;;5.30;2.30;;;;;;;;;;5054231;28;20231;-48
2022/09/09 04:16:11;;;;;;;2.80;2.00;;;;;;;;;;5054062;28;20204;-48
2022/09/09 04:18:37;;;;;;;2.30;2.10;;;;;;;;;;5054099;28;20203;-49
2022/09/09 04:21:06;;;;;;;2.57;2.37;;;;;;;;;;5054097;28;20188;-49
2022/09/09 04:23:34;;;;;;;3.20;2.00;;;;;;;;;;5054033;28;20615;-49
2022/09/09 04:26:00;;;;;;;5.90;2.57;;;;;;;;;;5051497;28;20749;-48
2022/09/09 04:28:28;;;;;;;3.23;2.10;;;;;;;;;;5052481;28;20311;-49
2022/09/09 04:30:54;;;;;;;3.43;2.13;;;;;;;;;;5053465;28;20657;-46
2022/09/09 04:33:20;;;;;;;3.33;2.10;;;;;;;;;;5053965;28;20530;-46
2022/09/09 04:35:47;;;;;;;3.30;2.10;;;;;;;;;;5053868;28;20262;-46
2022/09/09 04:38:15;;;;;;;3.90;2.40;;;;;;;;;;5053950;28;20193;-46
2022/09/09 04:40:42;;;;;;;3.67;2.30;;;;;;;;;;5053478;28;20207;-46
2022/09/09 04:43:09;;;;;;;2.90;2.17;;;;;;;;;;5053794;28;20200;-46
2022/09/09 04:45:35;;;;;;;5.57;2.47;;;;;;;;;;5053340;28;20192;-49
2022/09/09 04:48:02;;;;;;;4.90;2.50;;;;;;;;;;5053370;28;20319;-49
2022/09/09 04:50:28;;;;;;;3.87;2.40;;;;;;;;;;5053322;28;20246;-49
2022/09/09 04:52:55;;;;;;;2.60;2.30;;;;;;;;;;5053469;28;20291;-49
2022/09/09 04:55:22;;;;;;;5.03;2.37;;;;;;;;;;5053461;28;20203;-49
2022/09/09 04:57:48;;;;;;;4.03;2.30;;;;;;;;;;5053314;28;20199;-49
2022/09/09 05:00:15;;;;;;;8.13;2.40;;;;;;;;;;5053204;28;20232;-49
2022/09/09 05:02:42;;;;;;;2.90;2.37;;;;;;;;;;5052853;28;20192;-49
2022/09/09 05:05:08;;;;;;;2.73;2.10;;;;;;;;;;5053116;28;20207;-49
2022/09/09 05:07:34;;;;;;;5.17;2.47;;;;;;;;;;5053076;28;20769;-48
2022/09/09 05:10:00;;;;;;;4.90;2.10;;;;;;;;;;5053270;28;20208;-49
2022/09/09 05:12:28;;;;;;;3.50;2.03;;;;;;;;;;5052759;28;20198;-49
2022/09/09 05:14:59;;;;;;;1.90;1.80;;;;;;;;;;5052816;28;20764;-48
2022/09/09 05:17:25;;;;;;;1.80;1.70;;;;;;;;;;5052399;28;20207;-48
2022/09/09 05:19:51;;;;;;;2.10;1.97;;;;;;;;;;5053002;28;20196;-48
2022/09/09 05:22:20;;;;;;;3.60;1.80;;;;;;;;;;5052685;28;20211;-48
2022/09/09 05:24:46;;;;;;;2.90;1.90;;;;;;;;;;5052483;28;20215;-48
2022/09/09 05:27:12;;;;;;;3.33;2.13;;;;;;;;;;5052122;28;20764;-48
2022/09/09 05:29:41;;;;;;;3.77;1.80;;;;;;;;;;5052871;28;20616;-48
2022/09/09 05:32:07;;;;;;;2.73;1.60;;;;;;;;;;5052799;28;20204;-48
2022/09/09 05:34:33;;;;;;;2.03;1.73;;;;;;;;;;5052202;28;20712;-48
2022/09/09 05:36:59;;;;;;;4.07;2.33;;;;;;;;;;5052664;28;20200;-49
2022/09/09 05:39:24;;;;;;;3.10;2.00;;;;;;;;;;5052609;28;20210;-48
2022/09/09 05:41:51;;;;;;;3.30;2.13;;;;;;;;;;5051389;28;20659;-48
2022/09/09 05:44:17;;;;;;;4.50;1.80;;;;;;;;;;5052169;28;20246;-49
2022/09/09 05:46:44;;;;;;;3.80;1.80;;;;;;;;;;5052542;28;20278;-48
2022/09/09 05:49:10;;;;;;;2.57;1.70;;;;;;;;;;5052608;28;20287;-48
2022/09/09 05:51:37;;;;;;;2.33;1.80;;;;;;;;;;5052270;28;20283;-48
2022/09/09 05:54:03;;;;;;;3.10;1.93;;;;;;;;;;5052142;28;20606;-49
2022/09/09 05:56:29;;;;;;;2.07;1.80;;;;;;;;;;5052420;28;20201;-48
2022/09/09 05:58:56;;;;;;;3.20;1.93;;;;;;;;;;5052181;28;20223;-48
2022/09/09 06:01:23;;;;;;;5.53;2.20;;;;;;;;;;5052164;28;20265;-49
2022/09/09 06:03:51;;;;;;;3.43;2.23;;;;;;;;;;5052427;28;20196;-49
2022/09/09 06:06:22;;;;;;;3.37;1.90;;;;;;;;;;5051755;28;20254;-49
2022/09/09 06:08:50;;;;;;;4.37;1.83;;;;;;;;;;5051634;28;20224;-49
2022/09/09 06:11:17;;;;;;;3.40;2.10;;;;;;;;;;5051084;28;20705;-49
2022/09/09 06:13:43;;;;;;;3.00;2.03;;;;;;;;;;5051964;28;20694;-49
2022/09/09 06:16:11;;;;;;;3.37;1.90;;;;;;;;;;5051727;28;20204;-49
2022/09/09 06:18:37;;;;;;;2.57;1.90;;;;;;;;;;5049593;28;20192;-49
2022/09/09 06:21:06;;;;;;;4.37;2.30;;;;;;;;;;5051634;28;20196;-49
2022/09/09 06:23:32;;;;;;;4.50;2.40;;;;;;;;;;5051062;28;20205;-49
2022/09/09 06:26:02;;;;;;;3.67;2.20;;;;;;;;;;5051678;28;20595;-49
2022/09/09 06:28:28;;;;;;;3.47;2.30;;;;;;;;;;5051572;28;20228;-48
2022/09/09 06:30:58;;;;;;;6.53;2.07;;;;;;;;;;5051614;28;20725;-49
2022/09/09 06:33:24;;;;;;;4.80;2.23;;;;;;;;;;5049739;28;20231;-49
2022/09/09 06:35:52;;;;;;;3.23;2.17;;;;;;;;;;5051969;28;20220;-49
2022/09/09 06:38:22;;;;;;;4.53;2.20;;;;;;;;;;5051575;28;20280;-49
2022/09/09 06:40:51;;;;;;;4.27;2.17;;;;;;;;;;5050985;28;20204;-49
2022/09/09 06:43:17;;;;;;;3.13;2.10;;;;;;;;;;5050779;28;20227;-49
2022/09/09 06:45:44;;;;;;;3.17;2.30;;;;;;;;;;5051542;28;20283;-49
2022/09/09 06:48:10;;;;;;;3.53;2.20;;;;;;;;;;5051163;28;20232;-49
2022/09/09 06:50:36;;;;;;;6.97;2.23;;;;;;;;;;5051254;28;20611;-48
2022/09/09 06:53:02;;;;;;;4.37;2.10;;;;;;;;;;5051204;28;20211;-49
2022/09/09 06:55:30;;;;;;;3.20;2.20;;;;;;;;;;5051293;28;20677;-48
2022/09/09 06:57:56;;;;;;;6.07;2.07;;;;;;;;;;5051165;28;20200;-49
2022/09/09 07:00:22;;;;;;;3.90;2.27;;;;;;;;;;5051035;28;20244;-49
2022/09/09 07:02:50;;;;;;;6.33;2.20;;;;;;;;;;5051354;28;20203;-49
2022/09/09 07:05:16;;;;;;;3.17;2.20;;;;;;;;;;5049384;28;20253;-49
2022/09/09 07:07:42;;;;;;;4.97;2.20;;;;;;;;;;5050869;28;20228;-48
2022/09/09 07:10:09;;;;;;;3.67;2.27;;;;;;;;;;5049272;28;20196;-47
2022/09/09 07:12:37;;;;;;;5.37;2.30;;;;;;;;;;5050757;28;20196;-47
2022/09/09 07:15:03;;;;;;;3.07;2.17;;;;;;;;;;5050658;28;20280;-48
2022/09/09 07:17:29;;;;;;;4.53;2.10;;;;;;;;;;5049595;28;20210;-47
2022/09/09 07:19:56;;;;;;;4.13;2.27;;;;;;;;;;5050430;28;20269;-48
2022/09/09 07:22:22;;;;;;;2.67;1.90;;;;;;;;;;5049094;28;20678;-47
2022/09/09 07:24:49;;;;;;;2.90;1.90;;;;;;;;;;5050695;28;20200;-48
2022/09/09 07:27:15;;;;;;;4.40;1.87;;;;;;;;;;5050606;28;20227;-48
2022/09/09 07:29:42;;;;;;;2.80;1.70;;;;;;;;;;5050818;28;20299;-48
2022/09/09 07:32:08;;;;;;;2.50;1.83;;;;;;;;;;5049088;28;20204;-48
2022/09/09 07:34:34;;;;;;;3.57;2.03;;;;;;;;;;5050850;28;20304;-48
2022/09/09 07:37:00;;;;;;;3.03;1.90;;;;;;;;;;5050739;28;20203;-48
2022/09/09 07:39:26;;;;;;;5.67;2.50;;;;;;;;;;5050532;28;20192;-48
2022/09/09 07:41:54;;;;;;;5.80;1.90;;;;;;;;;;5050541;28;20737;-49
2022/09/09 07:44:21;;;;;;;4.00;2.20;;;;;;;;;;5048702;28;20200;-48
2022/09/09 07:46:48;;;;;;;3.77;2.20;;;;;;;;;;5050649;28;20287;-48
2022/09/09 07:49:14;;;;;;;3.27;2.10;;;;;;;;;;5050582;28;20307;-48
2022/09/09 07:51:42;;;;;;;4.40;2.17;;;;;;;;;;5050424;28;20196;-51
2022/09/09 07:54:09;;;;;;;2.33;2.00;;;;;;;;;;5050294;28;20214;-49
2022/09/09 07:56:36;;;;;;;3.73;2.30;;;;;;;;;;5049953;28;20749;-49
2022/09/09 07:59:06;;;;;;;3.57;1.90;;;;;;;;;;5050136;28;20196;-49
2022/09/09 08:01:33;;;;;;;2.47;1.93;;;;;;;;;;5050154;28;20201;-48
2022/09/09 08:04:01;;;;;;;7.80;2.00;;;;;;;;;;5048039;28;20291;-49
2022/09/09 08:06:27;;;;;;;5.10;1.87;;;;;;;;;;5050329;28;20207;-49
2022/09/09 08:08:54;;;;;;;3.37;1.90;;;;;;;;;;5050123;28;20774;-48
2022/09/09 08:11:22;;;;;;;3.20;1.53;;;;;;;;;;5049668;28;20197;-49
2022/09/09 08:13:49;;;;;;;5.43;1.73;;;;;;;;;;5050275;28;20209;-49
2022/09/09 08:16:16;;;;;;;3.23;1.80;;;;;;;;;;5049973;28;20719;-48
2022/09/09 08:18:43;;;;;;;4.97;1.83;;;;;;;;;;5050118;28;20194;-48
2022/09/09 08:21:14;;;;;;;3.60;1.73;;;;;;;;;;5050203;28;20241;-48
2022/09/09 08:23:41;;;;;;;3.47;1.80;;;;;;;;;;5050245;28;20571;-49
2022/09/09 08:26:08;;;;;;;3.43;1.70;;;;;;;;;;5050196;28;20234;-48
2022/09/09 08:28:34;;;;;;;5.37;1.83;;;;;;;;;;5051590;28;20230;-49
2022/09/09 08:31:08;;;;;;;3.03;1.57;;;;;;;;;;5053932;28;20194;-53
2022/09/09 08:33:36;;;;;;;5.03;1.70;;;;;;;;;;5053593;28;20636;-49
2022/09/09 08:36:02;;;;;;;3.80;1.73;;;;;;;;;;5053963;28;20249;-49
2022/09/09 08:38:30;;;;;;;4.27;1.67;;;;;;;;;;5051774;28;20287;-49
2022/09/09 08:41:02;;;;;;;3.17;1.90;;;;;;;;;;5053732;28;20254;-49
2022/09/09 08:43:29;;;;;;;4.27;1.70;;;;;;;;;;5053592;28;20784;-49
2022/09/09 08:45:57;;;;;;;4.47;1.70;;;;;;;;;;5053682;28;20210;-49
2022/09/09 08:48:35;;;;;;;8.83;2.10;;;;;;;;;;5053615;28;20239;-49
2022/09/09 08:51:03;;;;;;;5.83;2.10;;;;;;;;;;5052058;28;20216;-50
2022/09/09 08:53:35;;;;;;;4.50;1.87;;;;;;;;;;5053311;28;20202;-49
2022/09/09 08:56:03;;;;;;;4.50;2.00;;;;;;;;;;5053463;28;20213;-49
2022/09/09 08:58:30;;;;;;;5.63;2.00;;;;;;;;;;5053214;28;20665;-49
2022/09/09 09:01:10;;;;;;;6.27;2.17;;;;;;;;;;5053086;28;20652;-50
2022/09/09 09:03:44;;;;;;;5.83;1.90;;;;;;;;;;5053378;28;20295;-50
2022/09/09 09:06:19;;;;;;;4.27;2.10;;;;;;;;;;5053352;28;20672;-49
2022/09/09 09:08:51;;;;;;;3.93;2.10;;;;;;;;;;5051248;28;20238;-50
2022/09/09 09:11:17;;;;;;;4.70;1.67;;;;;;;;;;5053553;28;20226;-49
2022/09/09 09:13:45;;;;;;;3.80;1.73;;;;;;;;;;5053058;28;20207;-50
2022/09/09 09:16:15;;;;;;;3.40;1.60;;;;;;;;;;5052867;28;20192;-49
2022/09/09 09:18:42;;;;;;;4.60;2.20;;;;;;;;;;5050816;28;20781;-50
2022/09/09 09:21:12;;;;;;;6.70;2.00;;;;;;;;;;5052953;28;20229;-49
2022/09/09 09:23:43;;;;;;;5.10;1.67;;;;;;;;;;5052816;28;20262;-49
2022/09/09 09:26:11;;;;;;;5.27;2.60;;;;;;;;;;5052919;28;20681;-49
2022/09/09 09:28:38;;;;;;;3.70;1.90;;;;;;;;;;5050870;28;20835;-50
2022/09/09 09:31:05;;;;;;;4.03;1.83;;;;;;;;;;5052740;28;20200;-50
2022/09/09 09:33:33;;;;;;;5.10;1.70;;;;;;;;;;5052792;28;20807;-50
2022/09/09 09:35:59;;;;;;;3.73;2.00;;;;;;;;;;5052846;28;20654;-50
2022/09/09 09:38:27;;;;;;;3.83;1.90;;;;;;;;;;5052611;28;20329;-49
2022/09/09 09:40:55;;;;;;;3.00;1.77;;;;;;;;;;5052010;28;20219;-50
2022/09/09 09:43:25;;;;;;;5.67;1.80;;;;;;;;;;5052747;28;20221;-50
2022/09/09 09:45:51;;;;;;;4.23;1.97;;;;;;;;;;5052849;28;20664;-49
2022/09/09 09:48:17;;;;;;;4.53;1.97;;;;;;;;;;5052467;28;20319;-49
2022/09/09 09:50:48;;;;;;;6.50;1.90;;;;;;;;;;5052460;28;20678;-49
2022/09/09 09:53:19;;;;;;;3.67;1.90;;;;;;;;;;5052490;28;20199;-49
2022/09/09 09:55:47;;;;;;;4.47;2.03;;;;;;;;;;5052585;28;20204;-49
2022/09/09 09:58:15;;;;;;;3.10;2.03;;;;;;;;;;5052306;28;20691;-48
2022/09/09 10:00:49;;;;;;;3.97;1.80;;;;;;;;;;5049709;28;20318;-49
2022/09/09 10:03:20;;;;;;;7.43;2.37;;;;;;;;;;5050238;28;20211;-50
2022/09/09 10:05:47;;;;;;;3.30;1.80;;;;;;;;;;5052507;28;20651;-48
2022/09/09 10:08:14;;;;;;;5.03;1.90;;;;;;;;;;5050082;28;20289;-48
2022/09/09 10:10:49;;;;;;;5.87;1.90;;;;;;;;;;5049839;28;20282;-49
2022/09/09 10:13:19;;;;;;;6.37;1.97;;;;;;;;;;5049518;28;20192;-49
2022/09/09 10:15:50;;;;;;;4.43;1.73;;;;;;;;;;5051093;28;20235;-49
2022/09/09 10:18:37;;;;;;;3.93;1.80;;;;;;;;;;5051821;28;20207;-50
2022/09/09 10:21:07;;;;;;;5.50;1.80;;;;;;;;;;5052042;28;20253;-50
2022/09/09 10:23:46;;;;;;;3.30;1.57;;;;;;;;;;5051674;28;20196;-50
2022/09/09 10:26:19;;;;;;;4.90;1.93;;;;;;;;;;5051679;28;20211;-50
2022/09/09 10:29:11;;;;;;;3.53;1.60;;;;;;;;;;5050403;28;20748;-49
2022/09/09 10:31:41;;;;;;;3.60;1.77;;;;;;;;;;5050640;28;20895;-49
2022/09/09 10:34:18;;;;;;;3.33;1.53;;;;;;;;;;5051517;28;20254;-50
2022/09/09 10:36:46;;;;;;;2.63;1.70;;;;;;;;;;5051570;28;20196;-50
2022/09/09 10:39:19;;;;;;;5.97;1.80;;;;;;;;;;5051690;28;20293;-51
2022/09/09 10:41:51;;;;;;;5.43;1.93;;;;;;;;;;5051220;28;20283;-50
2022/09/09 10:44:27;;;;;;;3.83;1.77;;;;;;;;;;5051189;28;20189;-50
2022/09/09 10:46:59;;;;;;;5.17;1.83;;;;;;;;;;5051524;28;20204;-50
2022/09/09 10:49:49;;;;;;;2.60;1.40;;;;;;;;;;5049255;28;20311;-49
2022/09/09 10:52:17;;;;;;;4.70;1.70;;;;;;;;;;5049477;28;20258;-49
2022/09/09 10:54:51;;;;;;;4.17;1.90;;;;;;;;;;5050609;28;20539;-49
2022/09/09 10:57:20;;;;;;;4.23;1.70;;;;;;;;;;5050541;28;20675;-49
2022/09/09 10:59:49;;;;;;;5.07;1.90;;;;;;;;;;5050409;28;20294;-48
2022/09/09 11:02:19;;;;;;;4.20;1.57;;;;;;;;;;5050302;28;20188;-48
2022/09/09 11:04:49;;;;;;;4.37;2.40;;;;;;;;;;5050371;28;20204;-48
2022/09/09 11:07:21;;;;;;;4.30;1.70;;;;;;;;;;5050483;28;20224;-48
2022/09/09 11:09:51;;;;;;;6.20;2.10;;;;;;;;;;5046601;28;20231;-48
2022/09/09 11:12:20;;;;;;;3.57;1.70;;;;;;;;;;5049031;28;20246;-49
2022/09/09 11:14:47;;;;;;;6.13;2.13;;;;;;;;;;5049093;28;20208;-49
2022/09/09 11:17:14;;;;;;;3.20;1.67;;;;;;;;;;5050729;28;20651;-49
2022/09/09 11:19:41;;;;;;;2.90;1.73;;;;;;;;;;5051533;28;20203;-50
2022/09/09 11:22:15;;;;;;;3.77;1.80;;;;;;;;;;5050958;28;20195;-50
2022/09/09 11:24:45;;;;;;;2.70;1.50;;;;;;;;;;5050999;28;20298;-50
2022/09/09 11:27:12;;;;;;;2.77;1.30;;;;;;;;;;5050313;28;20196;-48
2022/09/09 11:29:47;;;;;;;6.13;1.50;;;;;;;;;;5050251;28;20253;-48
2022/09/09 11:32:19;;;;;;;4.53;1.50;;;;;;;;;;5049719;28;20245;-49
2022/09/09 11:34:52;;;;;;;3.40;1.70;;;;;;;;;;5050087;28;20226;-49
2022/09/09 11:37:30;;;;;;;3.60;1.87;;;;;;;;;;5050740;28;20200;-49
2022/09/09 11:40:09;;;;;;;4.57;1.60;;;;;;;;;;5050846;28;20234;-49
2022/09/09 11:42:35;;;;;;;8.20;1.70;;;;;;;;;;5049407;28;20201;-48
2022/09/09 11:45:09;;;;;;;6.30;2.00;;;;;;;;;;5050662;28;20196;-49
2022/09/09 11:47:35;;;;;;;3.67;1.90;;;;;;;;;;5050510;28;20226;-49
2022/09/09 11:50:08;;;;;;;4.00;1.77;;;;;;;;;;5048485;28;20213;-49
2022/09/09 11:52:38;;;;;;;5.80;1.73;;;;;;;;;;5048247;28;20200;-49
2022/09/09 11:55:09;;;;;;;2.83;1.60;;;;;;;;;;5049556;28;20741;-49
2022/09/09 11:57:36;;;;;;;3.73;1.50;;;;;;;;;;5050233;28;20201;-49
2022/09/09 12:00:03;;;;;;;2.20;1.60;;;;;;;;;;5050041;28;20321;-49
2022/09/09 12:02:31;;;;;;;2.13;1.40;;;;;;;;;;5050144;28;20844;-49
2022/09/09 12:05:00;;;;;;;2.73;1.37;;;;;;;;;;5054488;28;20695;-49
2022/09/09 12:07:30;;;;;;;1.77;1.47;;;;;;;;;;5054394;28;20293;-49
2022/09/09 12:09:59;;;;;;;3.07;1.40;;;;;;;;;;5054028;28;20677;-49
2022/09/09 12:12:29;;;;;;;3.27;1.43;;;;;;;;;;5054051;28;20216;-49
2022/09/09 12:14:57;;;;;;;4.00;1.73;;;;;;;;;;5054101;28;20210;-49
2022/09/09 12:17:24;;;;;;;3.67;1.77;;;;;;;;;;5054025;28;20689;-49
2022/09/09 12:20:09;;;;;;;6.37;1.57;;;;;;;;;;5052890;28;20210;-50
2022/09/09 12:22:38;;;;;;;4.57;1.40;;;;;;;;;;5053243;28;20206;-47
2022/09/09 12:25:08;;;;;;;5.27;1.50;;;;;;;;;;5053502;28;20646;-47
2022/09/09 12:27:37;;;;;;;3.50;1.60;;;;;;;;;;5052243;28;20228;-48
2022/09/09 12:30:04;;;;;;;7.63;1.93;;;;;;;;;;5054132;28;20326;-48
2022/09/09 12:32:30;;;;;;;3.03;1.50;;;;;;;;;;5053679;28;20650;-48
2022/09/09 12:34:59;;;;;;;3.57;1.70;;;;;;;;;;5051440;28;20286;-48
2022/09/09 12:37:28;;;;;;;4.33;1.50;;;;;;;;;;5053075;28;20254;-48
2022/09/09 12:39:55;;;;;;;4.17;1.70;;;;;;;;;;5053153;28;20203;-48
2022/09/09 12:42:23;;;;;;;3.03;1.40;;;;;;;;;;5053120;28;20218;-48
2022/09/09 12:44:53;;;;;;;4.17;1.60;;;;;;;;;;5051465;28;20282;-48
2022/09/09 12:47:21;;;;;;;2.20;1.27;;;;;;;;;;5052969;28;20232;-48
2022/09/09 12:49:49;;;;;;;4.50;1.67;;;;;;;;;;5052952;28;20663;-48
2022/09/09 12:52:17;;;;;;;6.47;1.87;;;;;;;;;;5053307;28;20300;-48
2022/09/09 12:54:46;;;;;;;3.30;1.37;;;;;;;;;;5052536;28;20663;-48
2022/09/09 12:57:13;;;;;;;4.17;1.40;;;;;;;;;;5053228;28;20291;-48
2022/09/09 12:59:41;;;;;;;5.10;1.47;;;;;;;;;;5053526;28;20235;-49
2022/09/09 13:02:17;;;;;;;3.70;1.67;;;;;;;;;;5053126;28;20672;-48
2022/09/09 13:04:44;;;;;;;3.80;1.70;;;;;;;;;;5053311;28;20615;-48
2022/09/09 13:07:11;;;;;;;3.47;1.57;;;;;;;;;;5052963;28;20300;-48
2022/09/09 13:09:37;;;;;;;3.80;1.70;;;;;;;;;;5052539;28;20588;-48
2022/09/09 13:12:06;;;;;;;4.17;1.50;;;;;;;;;;5051450;28;20224;-48
2022/09/09 13:14:37;;;;;;;3.03;1.00;;;;;;;;;;5051527;28;20211;-48
2022/09/09 13:17:05;;;;;;;2.90;1.40;;;;;;;;;;5052806;28;20229;-48
2022/09/09 13:19:34;;;;;;;3.13;1.60;;;;;;;;;;5051484;28;20304;-48
2022/09/09 13:22:02;;;;;;;2.87;1.50;;;;;;;;;;5052879;28;20222;-48
2022/09/09 13:24:30;;;;;;;4.03;1.30;;;;;;;;;;5052795;28;20201;-48
2022/09/09 13:26:56;;;;;;;2.20;1.07;;;;;;;;;;5053029;28;20640;-49
2022/09/09 13:29:22;;;;;;;6.67;1.63;;;;;;;;;;5050962;28;20226;-49
2022/09/09 13:31:52;;;;;;;3.33;1.57;;;;;;;;;;5052430;28;20201;-49
2022/09/09 13:34:29;;;;;;;3.90;1.47;;;;;;;;;;5052636;28;20225;-48
2022/09/09 13:36:58;;;;;;;4.20;1.60;;;;;;;;;;5052599;28;20207;-48
2022/09/09 13:39:24;;;;;;;1.73;1.00;;;;;;;;;;5052465;28;20195;-49
2022/09/09 13:41:50;;;;;;;2.77;1.33;;;;;;;;;;5052659;28;20620;-49
2022/09/09 13:44:20;;;;;;;2.93;1.40;;;;;;;;;;5052220;28;20197;-49
2022/09/09 13:46:46;;;;;;;2.37;1.50;;;;;;;;;;5052261;28;20216;-48
2022/09/09 13:49:20;;;;;;;2.00;1.20;;;;;;;;;;5048547;28;20312;-49
2022/09/09 13:51:48;;;;;;;3.10;1.20;;;;;;;;;;5052340;28;20216;-48
2022/09/09 13:54:15;;;;;;;2.57;1.07;;;;;;;;;;5050604;28;20738;-48
2022/09/09 13:56:42;;;;;;;3.17;1.40;;;;;;;;;;5051785;28;20241;-48
2022/09/09 13:59:12;;;;;;;4.27;1.20;;;;;;;;;;5051936;28;20203;-48
2022/09/09 14:01:38;;;;;;;2.77;1.30;;;;;;;;;;5051541;28;20318;-49
2022/09/09 14:04:05;;;;;;;1.50;1.13;;;;;;;;;;5050014;28;20383;-48
2022/09/09 14:06:32;;;;;;;4.67;1.43;;;;;;;;;;5052176;28;20206;-48
2022/09/09 14:08:59;;;;;;;5.27;1.50;;;;;;;;;;5049391;28;20220;-48
2022/09/09 14:11:25;;;;;;;6.17;1.30;;;;;;;;;;5051149;28;20193;-48
2022/09/09 14:13:51;;;;;;;3.07;1.30;;;;;;;;;;5050923;28;20730;-48
2022/09/09 14:16:17;;;;;;;2.97;1.23;;;;;;;;;;5051371;28;20199;-48
2022/09/09 14:18:43;;;;;;;3.13;1.70;;;;;;;;;;5051303;28;20579;-48
2022/09/09 14:21:10;;;;;;;3.03;1.30;;;;;;;;;;5049624;28;20614;-47
2022/09/09 14:23:37;;;;;;;3.20;1.37;;;;;;;;;;5050880;28;20193;-48
2022/09/09 14:26:05;;;;;;;4.57;1.57;;;;;;;;;;5049807;28;20207;-48
2022/09/09 14:28:33;;;;;;;3.13;1.20;;;;;;;;;;5049736;28;20307;-48
2022/09/09 14:31:00;;;;;;;3.87;1.40;;;;;;;;;;5049759;28;20227;-48
2022/09/09 14:33:28;;;;;;;2.53;1.13;;;;;;;;;;5051020;28;20235;-48
2022/09/09 14:35:55;;;;;;;4.37;1.40;;;;;;;;;;5051064;28;20197;-48
2022/09/09 14:38:21;;;;;;;3.57;1.30;;;;;;;;;;5051866;28;20206;-48
2022/09/09 14:40:47;;;;;;;2.90;1.23;;;;;;;;;;5049600;28;20287;-48
2022/09/09 14:43:15;;;;;;;2.83;1.30;;;;;;;;;;5050855;28;20597;-48
2022/09/09 14:45:41;;;;;;;1.70;1.00;;;;;;;;;;5050934;28;20208;-48
2022/09/09 14:48:07;;;;;;;2.17;1.10;;;;;;;;;;5050991;28;20331;-47
2022/09/09 14:50:34;;;;;;;2.63;1.50;;;;;;;;;;5050986;28;20726;-48